Time;durP1;ratioP1;P1;durP2;ratioP2;P2;SDS_P1;SDS_P2;PMS_P1;PMS_P2;Temp;Humidity;BMP_temperature;BMP_pressure;BME280_temperature;BME280_humidity;BME280_pressure;Samples;Min_cycle;Max_cycle;Signal;HPM_P1;HPM_P2
2022/03/03 00:02:47;;;;;;;28.77;15.75;;;;;;;2.94;64.45;102046.41;10458155;28;20440;-78
2022/03/03 00:07:47;;;;;;;17.20;13.70;;;;;;;2.92;64.85;102044.81;10456835;28;20041;-79
2022/03/03 00:12:48;;;;;;;20.63;14.40;;;;;;;2.91;64.23;102041.28;10456434;28;20044;-77
2022/03/03 00:17:48;;;;;;;18.10;15.20;;;;;;;2.82;63.59;102042.00;10456239;28;20083;-77
2022/03/03 00:22:48;;;;;;;20.30;15.80;;;;;;;2.64;63.32;102038.06;10439650;28;20079;-72
2022/03/03 00:27:49;;;;;;;20.73;13.75;;;;;;;2.46;63.50;102038.50;10456918;28;20037;-77
2022/03/03 00:32:49;;;;;;;16.35;12.23;;;;;;;2.39;65.28;102039.94;10456298;28;20039;-77
2022/03/03 00:37:50;;;;;;;19.98;14.00;;;;;;;2.48;66.37;102033.88;10457350;28;20040;-77
2022/03/03 00:42:50;;;;;;;17.42;13.85;;;;;;;2.46;67.25;102033.16;10455966;28;20106;-77
2022/03/03 00:47:51;;;;;;;16.00;12.70;;;;;;;2.28;68.21;102034.56;10454876;28;20032;-76
2022/03/03 00:52:51;;;;;;;21.38;12.55;;;;;;;2.33;67.56;102035.06;10454360;28;20393;-74
2022/03/03 00:57:52;;;;;;;16.65;11.00;;;;;;;2.41;66.43;102021.97;10456934;28;20041;-77
2022/03/03 01:02:52;;;;;;;13.05;9.00;;;;;;;2.42;66.80;102026.31;10456802;28;20033;-78
2022/03/03 01:07:52;;;;;;;25.40;13.63;;;;;;;2.47;66.44;102018.81;10455119;28;20060;-77
2022/03/03 01:12:53;;;;;;;17.25;13.23;;;;;;;2.40;66.88;102017.59;10455626;28;20127;-77
2022/03/03 01:17:53;;;;;;;18.63;12.50;;;;;;;2.31;67.29;102000.44;10454323;28;20064;-78
2022/03/03 01:22:54;;;;;;;23.25;11.23;;;;;;;2.27;67.52;101996.28;10459740;28;20461;-72
2022/03/03 01:27:55;;;;;;;20.48;13.18;;;;;;;2.21;68.27;101996.75;10464404;28;20037;-77
2022/03/03 01:32:55;;;;;;;22.15;14.40;;;;;;;2.22;67.60;101986.91;10462799;28;20037;-77
2022/03/03 01:37:56;;;;;;;19.48;13.35;;;;;;;2.22;67.38;101981.56;10445395;28;20129;-78
2022/03/03 01:42:56;;;;;;;23.10;14.52;;;;;;;2.21;67.05;101967.34;10445888;28;20431;-78
2022/03/03 01:47:56;;;;;;;16.77;11.50;;;;;;;2.20;66.38;101978.16;10462847;28;20076;-78
2022/03/03 01:52:57;;;;;;;22.40;12.63;;;;;;;2.24;66.44;101971.63;10462482;28;20049;-77
2022/03/03 01:57:58;;;;;;;19.40;11.18;;;;;;;2.31;65.42;101963.00;10463282;28;20037;-77
2022/03/03 02:03:00;;;;;;;15.35;12.43;;;;;;;2.12;66.39;101952.03;10444282;28;20025;-77
2022/03/03 02:08:01;;;;;;;16.30;12.20;;;;;;;1.99;67.76;101954.78;10445596;28;20457;-78
2022/03/03 02:13:01;;;;;;;15.68;12.93;;;;;;;1.91;67.52;101941.13;10463153;28;20033;-76
2022/03/03 02:18:02;;;;;;;15.00;10.00;;;;;;;1.89;67.45;101931.56;10447067;28;20453;-78
2022/03/03 02:23:02;;;;;;;17.35;11.63;;;;;;;1.95;67.68;101939.94;10465012;28;20033;-78
2022/03/03 02:28:03;;;;;;;11.18;9.60;;;;;;;1.88;68.77;101932.50;10460919;28;20368;-77
2022/03/03 02:33:04;;;;;;;25.63;13.93;;;;;;;1.82;68.50;101941.84;10458672;28;20039;-77
2022/03/03 02:38:04;;;;;;;17.27;11.35;;;;;;;1.78;68.93;101927.00;10460873;28;20043;-78
2022/03/03 02:43:05;;;;;;;20.08;12.63;;;;;;;1.78;69.26;101927.00;10461323;28;20067;-77
2022/03/03 02:48:05;;;;;;;21.40;12.88;;;;;;;1.76;69.16;101923.63;10442087;28;20029;-77
2022/03/03 02:53:05;;;;;;;18.90;11.75;;;;;;;1.69;69.66;101927.69;10459601;28;20148;-76
2022/03/03 02:58:06;;;;;;;16.33;12.80;;;;;;;1.62;70.17;101922.78;10442037;28;20037;-77
2022/03/03 03:03:06;;;;;;;15.15;10.45;;;;;;;1.52;71.14;101913.78;10459597;28;20029;-78
2022/03/03 03:08:07;;;;;;;31.10;15.00;;;;;;;1.44;72.03;101921.50;10459434;28;20048;-78
2022/03/03 03:13:08;;;;;;;13.48;9.68;;;;;;;1.38;72.77;101909.47;10459782;28;20468;-78
2022/03/03 03:18:12;;;;;;;22.23;13.50;;;;;;;1.37;72.90;101914.91;10458316;28;20037;-78
2022/03/03 03:23:15;;;;;;;22.27;13.75;;;;;;;1.35;73.04;101900.84;10409070;28;20043;-78
2022/03/03 03:28:16;;;;;;;15.35;10.82;;;;;;;1.19;73.77;101906.44;10459207;28;20065;-78
2022/03/03 03:33:17;;;;;;;23.17;14.57;;;;;;;1.25;73.97;101902.50;10441255;28;20047;-78
2022/03/03 03:38:17;;;;;;;22.33;13.25;;;;;;;1.19;75.13;101906.44;10458777;28;20052;-78
2022/03/03 03:43:17;;;;;;;25.08;15.75;;;;;;;1.16;75.24;101909.34;10457386;28;20083;-76
2022/03/03 03:48:18;;;;;;;24.70;15.50;;;;;;;1.13;75.16;101904.22;10457202;28;20125;-78
2022/03/03 03:53:18;;;;;;;28.85;15.85;;;;;;;1.08;75.49;101901.88;10457610;28;20469;-77
2022/03/03 03:58:18;;;;;;;22.90;14.15;;;;;;;1.06;75.69;101897.63;10458239;28;20033;-78
2022/03/03 04:03:19;;;;;;;22.73;14.50;;;;;;;1.00;76.45;101890.94;10457335;28;20116;-77
2022/03/03 04:08:19;;;;;;;15.40;11.90;;;;;;;1.02;75.92;101889.00;10438919;28;20123;-76
2022/03/03 04:13:21;;;;;;;18.40;14.48;;;;;;;0.95;76.77;101890.41;10438871;28;20029;-77
2022/03/03 04:18:21;;;;;;;16.67;13.90;;;;;;;0.93;77.59;101892.34;10456612;28;20033;-77
2022/03/03 04:23:22;;;;;;;22.13;16.25;;;;;;;0.86;78.38;101883.06;10456365;28;20414;-78
2022/03/03 04:28:22;;;;;;;17.98;14.05;;;;;;;0.84;78.47;101877.00;10458491;28;20107;-78
2022/03/03 04:33:23;;;;;;;25.17;16.65;;;;;;;0.74;79.76;101875.97;10457444;28;20037;-79
2022/03/03 04:38:24;;;;;;;21.75;15.70;;;;;;;0.73;80.24;101876.91;10456877;28;20044;-77
2022/03/03 04:43:24;;;;;;;23.27;15.18;;;;;;;0.71;80.17;101876.19;10457120;28;20029;-78
2022/03/03 04:48:29;;;;;;;25.17;16.65;;;;;;;0.62;80.68;101872.34;10455831;28;20029;-77
2022/03/03 04:53:29;;;;;;;27.27;16.42;;;;;;;0.59;80.67;101870.75;10456491;28;20053;-78
2022/03/03 04:58:30;;;;;;;28.98;16.45;;;;;;;0.55;80.78;101877.25;10466515;28;20372;-78
2022/03/03 05:03:30;;;;;;;23.38;16.60;;;;;;;0.58;80.28;101881.53;10469406;28;20037;-77
2022/03/03 05:08:31;;;;;;;22.67;16.38;;;;;;;0.59;79.22;101870.75;10470549;28;20118;-76
2022/03/03 05:13:31;;;;;;;21.85;17.17;;;;;;;0.50;80.69;101874.06;10468881;28;20037;-79
2022/03/03 05:18:31;;;;;;;32.80;16.85;;;;;;;0.54;79.97;101875.53;10470579;28;20041;-75
2022/03/03 05:23:32;;;;;;;25.35;15.27;;;;;;;0.57;79.22;101877.97;10451098;28;20041;-77
2022/03/03 05:28:32;;;;;;;22.23;16.60;;;;;;;0.52;78.94;101873.97;10452380;28;20435;-80
2022/03/03 05:33:33;;;;;;;34.22;19.35;;;;;;;0.39;81.58;101868.66;10469164;28;20036;-73
2022/03/03 05:38:33;;;;;;;24.70;17.05;;;;;;;0.46;81.29;101867.25;10468678;28;20488;-72
2022/03/03 05:43:35;;;;;;;24.15;17.83;;;;;;;0.36;82.87;101868.84;10469398;28;20140;-71
2022/03/03 05:48:35;;;;;;;29.80;17.90;;;;;;;0.40;81.41;101865.84;10468361;28;20480;-72
2022/03/03 05:53:35;;;;;;;32.60;17.45;;;;;;;0.35;82.13;101864.47;10468506;28;20098;-79
2022/03/03 05:58:44;;;;;;;26.85;17.40;;;;;;;0.29;82.41;101864.91;10452659;28;20029;-78
2022/03/03 06:03:47;;;;;;;24.90;16.70;;;;;;;0.27;83.02;101864.16;10468035;28;20033;-73
2022/03/03 06:08:52;;;;;;;17.73;12.85;;;;;;;0.21;84.40;101868.09;10462193;28;20496;-77
2022/03/03 06:13:53;;;;;;;14.90;11.15;;;;;;;0.24;84.55;101875.88;10461422;28;20036;-75
2022/03/03 06:18:53;;;;;;;22.65;17.08;;;;;;;0.25;84.36;101874.06;10461961;28;20064;-73
2022/03/03 06:23:53;;;;;;;25.95;18.08;;;;;;;0.28;83.24;101880.03;10460533;28;20037;-75
2022/03/03 06:28:54;;;;;;;26.92;17.98;;;;;;;0.31;82.80;101884.31;10460004;28;20072;-76
2022/03/03 06:33:55;;;;;;;31.38;19.48;;;;;;;0.31;83.23;101885.16;10460893;28;20087;-75
2022/03/03 06:38:55;;;;;;;30.30;19.02;;;;;;;0.33;83.27;101877.06;10460103;28;20048;-75
2022/03/03 06:43:55;;;;;;;32.35;19.30;;;;;;;0.62;83.03;101883.00;10459247;28;20048;-76
2022/03/03 06:48:56;;;;;;;33.72;22.27;;;;;;;1.10;81.43;101883.09;10461224;28;20040;-75
2022/03/03 06:53:56;;;;;;;27.85;18.85;;;;;;;1.69;79.76;101874.28;10438843;28;20172;-75
2022/03/03 06:58:57;;;;;;;31.98;18.02;;;;;;;2.20;76.56;101874.81;10400961;28;20044;-75
2022/03/03 07:03:58;;;;;;;23.25;17.88;;;;;;;2.68;74.27;101877.25;10400524;28;20116;-76
2022/03/03 07:08:59;;;;;;;24.02;18.10;;;;;;;3.30;71.82;101874.97;10419076;28;20045;-75
2022/03/03 07:13:59;;;;;;;19.60;13.93;;;;;;;3.77;69.64;101887.09;10399847;28;20465;-76
2022/03/03 07:19:01;;;;;;;21.33;12.60;;;;;;;4.03;67.83;101884.88;10399138;28;20044;-75
2022/03/03 07:24:03;;;;;;;25.02;17.63;;;;;;;4.23;67.21;101879.63;10382240;28;20060;-75
2022/03/03 07:29:04;;;;;;;24.85;18.30;;;;;;;4.35;66.09;101890.16;10399294;28;20030;-76
2022/03/03 07:34:06;;;;;;;21.90;17.08;;;;;;;4.85;64.65;101887.56;10399489;28;20037;-75
2022/03/03 07:39:07;;;;;;;21.02;15.52;;;;;;;5.42;62.94;101884.28;10400292;28;20111;-76
2022/03/03 07:44:07;;;;;;;20.15;15.77;;;;;;;5.81;60.68;101875.25;10398688;28;20090;-76
2022/03/03 07:49:08;;;;;;;16.73;13.38;;;;;;;5.77;59.35;101881.88;10414338;28;20041;-76
2022/03/03 07:54:09;;;;;;;22.92;17.23;;;;;;;5.86;59.44;101884.72;10419073;28;20529;-76
2022/03/03 07:59:10;;;;;;;39.17;18.00;;;;;;;6.52;58.17;101877.53;10457713;28;20099;-77
2022/03/03 08:04:14;;;;;;;29.65;17.83;;;;;;;6.97;57.90;101892.09;10439675;28;20128;-76
2022/03/03 08:09:14;;;;;;;24.00;15.45;;;;;;;7.32;54.62;101885.09;10456129;28;20082;-77
2022/03/03 08:14:15;;;;;;;19.02;14.27;;;;;;;7.09;53.95;101877.44;10439026;28;20094;-76
2022/03/03 08:19:16;;;;;;;18.60;14.88;;;;;;;7.33;54.01;101892.16;10457438;28;20037;-75
2022/03/03 08:24:16;;;;;;;21.63;15.55;;;;;;;7.46;52.92;101889.94;10439169;28;20033;-77
2022/03/03 08:29:17;;;;;;;23.23;16.27;;;;;;;7.69;52.22;101882.25;10437917;28;20116;-76
2022/03/03 08:34:43;;;;;;;26.52;16.08;;;;;;;8.08;51.91;101890.00;10456010;28;20405;-77
2022/03/03 08:39:43;;;;;;;16.23;11.65;;;;;;;8.47;49.25;101890.47;10455855;28;20393;-76
2022/03/03 08:44:44;;;;;;;17.20;13.88;;;;;;;8.72;48.90;101887.91;10438354;28;20056;-78
2022/03/03 08:49:44;;;;;;;19.15;13.90;;;;;;;8.82;47.64;101894.88;10438026;28;20037;-75
2022/03/03 08:54:45;;;;;;;18.20;13.95;;;;;;;8.86;46.62;101884.59;10428520;28;20090;-76
2022/03/03 08:59:45;;;;;;;18.55;14.70;;;;;;;9.05;45.83;101878.91;10414532;28;20041;-76
2022/03/03 09:04:46;;;;;;;16.52;11.65;;;;;;;9.17;44.41;101897.53;10414462;28;20116;-76
2022/03/03 09:09:47;;;;;;;30.70;13.68;;;;;;;9.05;44.09;101911.34;10397567;28;20033;-78
2022/03/03 09:14:48;;;;;;;20.13;13.40;;;;;;;9.16;44.33;101912.09;10415228;28;20104;-77
2022/03/03 09:19:48;;;;;;;15.85;12.82;;;;;;;9.46;43.54;101903.38;10380843;28;20473;-77
2022/03/03 09:24:49;;;;;;;18.75;12.50;;;;;;;9.72;42.83;101905.09;10396038;28;20069;-75
2022/03/03 09:29:49;;;;;;;12.52;10.93;;;;;;;10.11;42.30;101893.59;10412334;28;20046;-77
2022/03/03 09:34:50;;;;;;;18.52;14.15;;;;;;;10.59;42.13;101889.16;10413139;28;20037;-78
2022/03/03 09:39:50;;;;;;;18.25;12.45;;;;;;;11.10;41.46;101889.66;10415602;28;20087;-78
2022/03/03 09:44:51;;;;;;;15.90;12.68;;;;;;;11.27;40.19;101883.13;10420112;28;20428;-76
2022/03/03 09:49:51;;;;;;;12.90;9.43;;;;;;;11.67;38.85;101883.88;10404504;28;20365;-77
2022/03/03 09:54:54;;;;;;;20.15;12.25;;;;;;;11.39;39.18;101870.88;10445895;28;20136;-77
2022/03/03 09:59:56;;;;;;;15.50;12.63;;;;;;;11.27;38.71;101877.72;10463466;28;20078;-76
2022/03/03 10:04:57;;;;;;;17.38;12.27;;;;;;;11.51;38.64;101879.41;10464213;28;20029;-77
2022/03/03 10:10:00;;;;;;;14.82;12.00;;;;;;;11.71;37.67;101879.81;10429221;28;20488;-76
2022/03/03 10:15:00;;;;;;;19.80;10.70;;;;;;;11.86;36.09;101883.44;10444629;28;20534;-77
2022/03/03 10:20:03;;;;;;;17.58;12.32;;;;;;;11.81;36.18;101885.00;10442973;28;20116;-76
2022/03/03 10:25:03;;;;;;;11.75;10.27;;;;;;;12.13;36.32;101867.59;10442540;28;20037;-77
2022/03/03 10:30:06;;;;;;;17.02;10.88;;;;;;;12.30;36.36;101879.16;10460335;28;20033;-75
2022/03/03 10:35:14;;;;;;;15.77;10.93;;;;;;;12.42;36.14;101876.84;10443475;28;20039;-75
2022/03/03 10:40:15;;;;;;;10.43;9.32;;;;;;;12.80;34.84;101872.16;10442164;28;20460;-77
2022/03/03 10:45:19;;;;;;;14.98;10.20;;;;;;;12.79;36.00;101868.59;10459215;28;20041;-76
2022/03/03 10:50:19;;;;;;;17.95;10.82;;;;;;;13.21;34.68;101864.31;10460071;28;20037;-77
2022/03/03 10:55:20;;;;;;;14.70;10.10;;;;;;;13.41;33.12;101871.88;10439683;28;20134;-75
2022/03/03 11:00:30;;;;;;;9.90;8.65;;;;;;;13.21;33.76;101856.16;10459969;28;20048;-76
2022/03/03 11:05:30;;;;;;;11.40;9.55;;;;;;;13.19;33.45;101857.38;10458674;28;20103;-75
2022/03/03 11:10:31;;;;;;;12.52;9.98;;;;;;;13.31;34.07;101846.88;10458593;28;20117;-77
2022/03/03 11:15:32;;;;;;;14.93;11.10;;;;;;;13.24;33.66;101836.75;10440738;28;20121;-75
2022/03/03 11:20:32;;;;;;;16.65;11.30;;;;;;;13.61;34.05;101843.00;10458332;28;20029;-76
2022/03/03 11:25:34;;;;;;;12.30;10.55;;;;;;;13.77;32.90;101844.59;10458167;28;20037;-77
2022/03/03 11:30:35;;;;;;;11.38;9.15;;;;;;;13.78;33.08;101831.81;10424166;28;20112;-75
2022/03/03 11:35:51;;;;;;;15.82;10.10;;;;;;;13.87;32.91;101814.31;10440531;28;20113;-75
2022/03/03 11:41:00;;;;;;;12.50;9.30;;;;;;;13.92;32.05;101817.31;10457751;28;20108;-76
2022/03/03 11:46:00;;;;;;;9.80;7.78;;;;;;;13.36;31.17;101839.78;10440443;28;20064;-76
2022/03/03 11:51:20;;;;;;;10.90;9.52;;;;;;;13.18;33.32;101828.50;10458213;28;20461;-76
2022/03/03 11:56:21;;;;;;;18.75;10.43;;;;;;;13.59;32.98;101819.72;10456829;28;20049;-77
2022/03/03 12:01:21;;;;;;;14.27;10.98;;;;;;;14.05;32.51;101806.50;10456987;28;20522;-75
2022/03/03 12:06:36;;;;;;;13.93;9.45;;;;;;;13.82;33.88;101811.38;10454486;28;20040;-76
2022/03/03 12:11:37;;;;;;;11.43;7.97;;;;;;;14.05;32.71;101792.88;10440715;28;20029;-76
2022/03/03 12:16:37;;;;;;;10.77;9.63;;;;;;;14.04;33.05;101807.56;10456457;28;20384;-76
2022/03/03 12:21:37;;;;;;;13.13;10.25;;;;;;;13.72;33.38;101796.19;10421637;28;20084;-75
2022/03/03 12:26:56;;;;;;;16.05;10.30;;;;;;;13.99;31.66;101804.56;10456252;28;20032;-76
2022/03/03 12:31:57;;;;;;;12.88;9.40;;;;;;;14.26;31.72;101794.69;10454843;28;20056;-77
2022/03/03 12:36:57;;;;;;;13.18;8.23;;;;;;;14.04;30.47;101799.38;10454402;28;20025;-76
2022/03/03 12:41:58;;;;;;;10.15;9.10;;;;;;;13.65;31.36;101803.44;10455994;28;20104;-75
2022/03/03 12:46:59;;;;;;;10.48;9.38;;;;;;;13.84;31.78;101801.94;10455610;28;20421;-74
2022/03/03 12:51:59;;;;;;;12.95;10.57;;;;;;;14.18;32.84;101782.06;10455131;28;20052;-76
2022/03/03 12:57:00;;;;;;;9.93;8.00;;;;;;;13.90;31.71;101773.91;10437131;28;20087;-76
2022/03/03 13:02:01;;;;;;;12.20;8.75;;;;;;;13.47;31.83;101779.44;10454463;28;20112;-74
2022/03/03 13:07:11;;;;;;;11.85;8.95;;;;;;;13.29;32.68;101784.47;10461166;28;20061;-76
2022/03/03 13:12:12;;;;;;;9.02;7.88;;;;;;;13.19;32.76;101792.09;10437602;28;20385;-75
2022/03/03 13:17:12;;;;;;;12.50;9.60;;;;;;;13.25;33.39;101791.34;10456981;28;20048;-75
2022/03/03 13:22:12;;;;;;;15.57;9.48;;;;;;;13.00;32.51;101785.41;10461007;28;20033;-77
2022/03/03 13:27:13;;;;;;;20.30;11.07;;;;;;;13.06;33.96;101775.63;10462649;28;20059;-76
2022/03/03 13:32:14;;;;;;;11.10;9.93;;;;;;;13.52;33.88;101773.41;10462120;28;20080;-75
2022/03/03 13:37:16;;;;;;;16.13;9.85;;;;;;;13.46;32.18;101769.59;10444272;28;20108;-75
2022/03/03 13:42:18;;;;;;;12.43;8.25;;;;;;;13.35;33.20;101755.66;10461970;28;20036;-77
2022/03/03 13:47:29;;;;;;;16.73;9.60;;;;;;;13.22;33.81;101759.06;10462396;28;20045;-75
2022/03/03 13:52:34;;;;;;;12.45;9.30;;;;;;;13.27;33.10;101748.47;10461466;28;20084;-75
2022/03/03 13:57:45;;;;;;;15.68;9.50;;;;;;;13.11;33.51;101757.69;10461398;28;20361;-76
2022/03/03 14:02:52;;;;;;;9.90;8.88;;;;;;;12.98;34.07;101752.94;10444674;28;20036;-75
2022/03/03 14:07:52;;;;;;;11.88;9.05;;;;;;;13.02;34.45;101753.44;10462751;28;20039;-75
2022/03/03 14:13:05;;;;;;;13.90;10.88;;;;;;;13.03;33.27;101746.94;10460808;28;20036;-75
2022/03/03 14:18:06;;;;;;;14.80;10.45;;;;;;;12.63;33.55;101749.19;10462959;28;20068;-75
2022/03/03 14:23:06;;;;;;;14.25;9.07;;;;;;;12.49;33.89;101752.78;10445663;28;20068;-75
2022/03/03 14:28:06;;;;;;;13.32;8.82;;;;;;;12.61;34.69;101745.00;10441983;28;20035;-75
2022/03/03 14:33:07;;;;;;;9.40;8.45;;;;;;;12.65;34.42;101738.16;10460076;28;20416;-76
2022/03/03 14:38:07;;;;;;;17.10;7.88;;;;;;;12.79;33.19;101738.13;10444186;28;20086;-75
2022/03/03 14:43:08;;;;;;;14.50;9.23;;;;;;;12.64;33.80;101745.47;10444812;28;20457;-75
2022/03/03 14:48:08;;;;;;;14.45;8.95;;;;;;;12.39;34.15;101738.66;10460339;28;20130;-76
2022/03/03 14:53:09;;;;;;;9.60;7.88;;;;;;;12.37;34.56;101732.56;10451630;28;20104;-76
2022/03/03 14:58:10;;;;;;;10.75;9.18;;;;;;;12.19;34.62;101732.94;10401850;28;20105;-76
2022/03/03 15:03:10;;;;;;;11.90;9.63;;;;;;;12.09;35.52;101735.94;10400919;28;20041;-77
2022/03/03 15:08:10;;;;;;;18.70;10.18;;;;;;;12.01;35.48;101731.47;10401339;28;20049;-77
2022/03/03 15:13:11;;;;;;;17.98;11.75;;;;;;;11.96;36.95;101733.03;10418357;28;20422;-76
2022/03/03 15:18:12;;;;;;;13.10;9.20;;;;;;;11.89;38.48;101737.53;10418087;28;20029;-78
2022/03/03 15:23:12;;;;;;;19.80;11.82;;;;;;;11.41;40.65;101741.34;10418147;28;20033;-75
2022/03/03 15:28:13;;;;;;;14.45;11.00;;;;;;;10.93;40.67;101739.84;10417756;28;20033;-76
2022/03/03 15:36:44;;;;;;;11.45;9.93;;;;;;;10.71;41.03;101742.31;10417124;28;20037;-77
2022/03/03 15:38:34;;;;;;;15.40;9.75;;;;;;;10.35;40.73;101738.47;10416532;28;20045;-75
2022/03/03 15:43:34;;;;;;;17.27;10.50;;;;;;;10.21;40.55;101735.44;10416334;28;20034;-74
2022/03/03 15:48:34;;;;;;;24.73;11.27;;;;;;;10.16;41.88;101734.25;10416583;28;20044;-77
2022/03/03 15:53:35;;;;;;;11.13;9.00;;;;;;;10.02;42.05;101735.84;10418122;28;20448;-77
2022/03/03 15:58:35;;;;;;;14.35;9.48;;;;;;;9.94;41.75;101733.97;10416181;28;20072;-74
2022/03/03 16:03:36;;;;;;;15.20;11.60;;;;;;;9.81;42.65;101736.38;10415714;28;20489;-76
2022/03/03 16:08:36;;;;;;;13.85;9.52;;;;;;;9.72;42.30;101745.53;10398329;28;20041;-74
2022/03/03 16:13:37;;;;;;;14.07;10.57;;;;;;;9.69;42.42;101726.94;10415035;28;20498;-76
2022/03/03 16:18:37;;;;;;;16.10;10.23;;;;;;;9.60;42.57;101725.25;10415462;28;20092;-75
2022/03/03 16:23:38;;;;;;;14.55;9.95;;;;;;;9.53;41.75;101715.13;10415159;28;20033;-74
2022/03/03 16:28:41;;;;;;;14.18;10.80;;;;;;;9.49;42.74;101719.19;10414968;28;20524;-75
2022/03/03 16:33:41;;;;;;;11.93;8.85;;;;;;;9.30;42.31;101730.34;10414605;28;20033;-76
2022/03/03 16:38:42;;;;;;;26.13;10.65;;;;;;;9.32;42.68;101733.72;10415048;28;20037;-76
2022/03/03 16:43:42;;;;;;;16.30;10.32;;;;;;;9.23;43.60;101738.28;10415034;28;20489;-75
2022/03/03 16:48:43;;;;;;;13.20;11.65;;;;;;;8.99;44.42;101752.59;10399280;28;20361;-76
2022/03/03 16:53:43;;;;;;;18.00;11.32;;;;;;;8.90;44.68;101756.28;10426134;28;20053;-76
2022/03/03 16:58:43;;;;;;;11.95;10.73;;;;;;;8.81;44.68;101755.44;10439482;28;20041;-74
2022/03/03 17:03:44;;;;;;;16.60;11.95;;;;;;;8.70;45.11;101761.13;10455017;28;20120;-74
2022/03/03 17:08:46;;;;;;;16.83;9.82;;;;;;;8.59;45.66;101764.16;10456189;28;20475;-77
2022/03/03 17:13:48;;;;;;;20.77;10.48;;;;;;;8.33;45.86;101759.63;10456156;28;20037;-74
2022/03/03 17:18:50;;;;;;;13.82;10.88;;;;;;;8.28;45.88;101771.91;10423004;28;20040;-76
2022/03/03 17:23:50;;;;;;;19.45;10.02;;;;;;;8.31;45.65;101771.59;10437976;28;20033;-75
2022/03/03 17:28:52;;;;;;;12.15;9.90;;;;;;;8.25;45.60;101781.16;10455745;28;20067;-75
2022/03/03 17:33:52;;;;;;;13.68;9.68;;;;;;;8.14;45.01;101779.59;10456434;28;20095;-75
2022/03/03 17:38:53;;;;;;;11.30;9.95;;;;;;;8.13;45.31;101779.75;10457230;28;20083;-73
2022/03/03 17:43:53;;;;;;;12.50;10.18;;;;;;;8.01;45.69;101789.97;10455693;28;20036;-75
2022/03/03 17:48:53;;;;;;;16.95;9.38;;;;;;;7.88;46.46;101787.72;10456120;28;20049;-76
2022/03/03 17:53:54;;;;;;;14.43;10.25;;;;;;;7.72;47.31;101786.72;10456180;28;20053;-76
2022/03/03 17:58:54;;;;;;;17.02;11.05;;;;;;;7.58;47.10;101802.47;10437854;28;20120;-76
2022/03/03 18:03:55;;;;;;;17.50;11.60;;;;;;;7.55;47.10;101805.47;10440286;28;20043;-74
2022/03/03 18:08:55;;;;;;;16.55;11.45;;;;;;;7.44;47.66;101814.66;10462617;28;20428;-74
2022/03/03 18:13:56;;;;;;;16.45;10.27;;;;;;;7.43;47.71;101809.38;10462061;28;20330;-75
2022/03/03 18:18:56;;;;;;;12.45;11.10;;;;;;;7.29;48.26;101807.25;10444580;28;20056;-75
2022/03/03 18:23:56;;;;;;;21.20;10.27;;;;;;;7.25;47.72;101806.72;10443394;28;20119;-75
2022/03/03 18:28:57;;;;;;;13.05;10.52;;;;;;;7.26;47.63;101829.13;10460776;28;20377;-74
2022/03/03 18:33:57;;;;;;;17.40;11.88;;;;;;;7.18;47.97;101828.03;10461375;28;20036;-76
2022/03/03 18:38:57;;;;;;;14.38;11.07;;;;;;;7.08;48.26;101829.94;10461074;28;20460;-75
2022/03/03 18:43:58;;;;;;;17.48;12.55;;;;;;;6.95;48.88;101843.75;10460995;28;20380;-74
2022/03/03 18:48:58;;;;;;;20.90;11.40;;;;;;;6.94;49.11;101834.00;10461122;28;20048;-76
2022/03/03 18:54:00;;;;;;;11.25;9.98;;;;;;;6.80;49.60;101839.91;10460085;28;20186;-75
2022/03/03 18:59:01;;;;;;;14.50;11.40;;;;;;;6.71;49.84;101840.78;10460159;28;20388;-75
2022/03/03 19:04:02;;;;;;;14.50;7.80;;;;;;;6.58;49.98;101846.50;10443062;28;20120;-74
2022/03/03 19:09:03;;;;;;;21.23;12.02;;;;;;;6.44;50.66;101844.28;10441834;28;20465;-75
2022/03/03 19:14:04;;;;;;;15.18;10.32;;;;;;;6.35;50.62;101843.34;10459270;28;20072;-75
2022/03/03 19:19:04;;;;;;;13.40;11.13;;;;;;;6.27;50.98;101860.19;10441999;28;20464;-74
2022/03/03 19:24:05;;;;;;;13.32;10.93;;;;;;;6.26;50.92;101852.28;10459527;28;20033;-76
2022/03/03 19:29:06;;;;;;;15.23;10.85;;;;;;;6.19;51.01;101862.78;10459872;28;20033;-76
2022/03/03 19:34:09;;;;;;;24.67;12.45;;;;;;;6.09;51.65;101866.47;10458941;28;20104;-75
2022/03/03 19:39:10;;;;;;;10.98;9.55;;;;;;;5.94;52.05;101864.25;10459010;28;20037;-76
2022/03/03 19:44:10;;;;;;;17.13;12.35;;;;;;;5.88;52.54;101874.69;10458997;28;20082;-77
2022/03/03 19:49:11;;;;;;;17.10;12.27;;;;;;;5.76;52.83;101872.13;10458297;28;20499;-77
2022/03/03 19:54:11;;;;;;;15.95;11.52;;;;;;;5.63;52.90;101863.53;10458545;28;20057;-78
2022/03/03 19:59:12;;;;;;;17.90;13.23;;;;;;;5.51;53.64;101867.31;10441175;28;20029;-71
2022/03/03 20:04:12;;;;;;;13.80;12.38;;;;;;;5.44;54.34;101868.88;10457847;28;20032;-73
2022/03/03 20:14:31;;;;;;;18.63;12.40;;;;;;;5.31;55.59;101883.44;10457975;28;20029;-74
2022/03/03 20:19:32;;;;;;;19.05;12.95;;;;;;;5.26;56.23;101887.50;10440786;28;20041;-75
2022/03/03 20:24:32;;;;;;;16.25;11.13;;;;;;;5.22;56.43;101895.00;10457759;28;20060;-76
2022/03/03 20:29:32;;;;;;;13.45;12.02;;;;;;;5.15;57.07;101893.84;10438331;28;20040;-76
2022/03/03 20:34:34;;;;;;;18.45;11.45;;;;;;;5.09;57.35;101899.78;10457127;28;20025;-75
2022/03/03 20:39:35;;;;;;;12.25;9.93;;;;;;;5.07;57.62;101902.63;10456705;28;20310;-75
2022/03/03 20:44:35;;;;;;;13.68;10.85;;;;;;;5.14;57.80;101902.91;10455827;28;20041;-75
2022/03/03 20:49:35;;;;;;;17.48;12.35;;;;;;;5.13;57.77;101903.88;10438668;28;20071;-76
2022/03/03 20:54:36;;;;;;;22.60;13.45;;;;;;;5.06;58.36;101905.41;10438338;28;20057;-75
2022/03/03 20:59:36;;;;;;;17.10;11.20;;;;;;;5.03;58.43;101903.84;10456021;28;20127;-74
2022/03/03 21:04:37;;;;;;;20.75;11.65;;;;;;;4.96;58.96;101899.19;10456124;28;20041;-76
2022/03/03 21:09:37;;;;;;;13.35;11.50;;;;;;;4.89;59.44;101898.88;10438262;28;20116;-74
2022/03/03 21:14:38;;;;;;;24.67;12.02;;;;;;;4.85;59.90;101902.78;10455685;28;20388;-75
2022/03/03 21:19:40;;;;;;;17.10;11.50;;;;;;;4.87;60.10;101909.72;10456276;28;20111;-75
2022/03/03 21:24:41;;;;;;;16.10;11.57;;;;;;;4.78;60.64;101907.00;10438402;28;20087;-75
2022/03/03 21:29:41;;;;;;;13.50;11.77;;;;;;;4.77;60.89;101899.94;10455555;28;20087;-74
2022/03/03 21:34:41;;;;;;;14.93;11.13;;;;;;;4.68;61.48;101915.00;10455263;28;20118;-74
2022/03/03 21:39:42;;;;;;;20.65;11.27;;;;;;;4.59;61.77;101913.97;10459865;28;20452;-75
2022/03/03 21:44:42;;;;;;;21.70;13.52;;;;;;;4.49;62.12;101913.09;10445777;28;20033;-73
2022/03/03 21:49:43;;;;;;;16.10;12.13;;;;;;;4.37;62.67;101912.34;10462533;28;20172;-75
2022/03/03 21:54:43;;;;;;;14.38;10.52;;;;;;;4.28;62.77;101921.16;10462905;28;20057;-75
2022/03/03 21:59:44;;;;;;;22.15;12.95;;;;;;;4.19;63.19;101925.47;10462406;28;20043;-74
2022/03/03 22:04:44;;;;;;;19.45;11.98;;;;;;;4.12;63.55;101932.34;10462663;28;20099;-74
2022/03/03 22:09:45;;;;;;;17.90;11.38;;;;;;;4.00;64.00;101928.00;10445172;28;20135;-74
2022/03/03 22:14:47;;;;;;;16.10;12.32;;;;;;;3.94;63.90;101921.34;10463225;28;20095;-74
2022/03/03 22:19:49;;;;;;;15.45;13.80;;;;;;;3.84;64.76;101919.56;10462222;28;20045;-74
2022/03/03 22:24:49;;;;;;;25.63;14.73;;;;;;;3.75;65.14;101928.38;10446153;28;20032;-75
2022/03/03 22:29:50;;;;;;;22.52;11.85;;;;;;;3.57;66.51;101917.34;10445082;28;20036;-73
2022/03/03 22:34:50;;;;;;;18.60;13.90;;;;;;;3.48;66.51;101916.31;10463131;28;20107;-73
2022/03/03 22:39:51;;;;;;;12.20;10.93;;;;;;;3.37;66.50;101919.84;10461690;28;20041;-73
2022/03/03 22:44:51;;;;;;;14.75;11.70;;;;;;;3.39;66.88;101930.44;10443538;28;20035;-73
2022/03/03 22:55:10;;;;;;;20.75;12.77;;;;;;;3.44;65.47;101933.56;10461268;28;20060;-72
2022/03/03 23:00:11;;;;;;;21.88;13.80;;;;;;;3.46;65.45;101935.16;10460773;28;20045;-72